EFHK

Helsinki Vantaa Airport

Helsinki, Finland
METAR EFHK 201320Z VRB02KT CAVOK 10/05 Q1021 NOSIG
Observed Flight Rules
Oct-20 @ 13:20 UTC (29 minutes ago) Visual Flight Rules
Wind Visibility Clouds
Variable at 2 knots 10,000+ meters
  • Clear skies
Temperatures Readings
Current 10°C / 50°F
Dewpoint 5°C / 41°F
Humidity 71%
Altimeter 30.15" Hg
Pressure 1021 hPa
Elevation 56
METAR EFHK 201320Z VRB02KT CAVOK 10/05 Q1021 NOSIG
Observed Flight Rules
Oct-20 @ 13:20 UTC
(29 minutes ago)
VFR
Wind Visibility
Variable at 2 knots 10,000+ meters
Clouds
  • Clear skies
Temperature Dewpoint
10°C / 50°F 5°C / 41°F
Humidity Altimeter Pressure
71% 30.15" Hg 1021 hPa